sensor_id;sensor_type;location;lat;lon;timestamp;P1;durP1;ratioP1;P2;durP2;ratioP2
21825;SDS011;11075;47.944;11.776;2023-07-20T00:00:06;6.60;;;4.50;;
21825;SDS011;11075;47.944;11.776;2023-07-20T00:02:51;10.55;;;4.55;;
21825;SDS011;11075;47.944;11.776;2023-07-20T00:05:18;9.52;;;4.47;;
21825;SDS011;11075;47.944;11.776;2023-07-20T00:07:47;11.02;;;4.78;;
21825;SDS011;11075;47.944;11.776;2023-07-20T00:10:18;9.05;;;4.78;;
21825;SDS011;11075;47.944;11.776;2023-07-20T00:12:45;10.27;;;4.75;;
21825;SDS011;11075;47.944;11.776;2023-07-20T00:15:14;7.25;;;4.68;;
21825;SDS011;11075;47.944;11.776;2023-07-20T00:17:41;6.78;;;4.20;;
21825;SDS011;11075;47.944;11.776;2023-07-20T00:20:08;6.65;;;4.35;;
21825;SDS011;11075;47.944;11.776;2023-07-20T00:22:35;9.10;;;4.10;;
21825;SDS011;11075;47.944;11.776;2023-07-20T00:25:02;6.88;;;4.50;;
21825;SDS011;11075;47.944;11.776;2023-07-20T00:27:30;9.45;;;3.88;;
21825;SDS011;11075;47.944;11.776;2023-07-20T00:29:56;7.55;;;4.35;;
21825;SDS011;11075;47.944;11.776;2023-07-20T00:32:23;7.22;;;3.70;;
21825;SDS011;11075;47.944;11.776;2023-07-20T00:34:50;5.72;;;3.80;;
21825;SDS011;11075;47.944;11.776;2023-07-20T00:37:17;6.70;;;3.72;;
21825;SDS011;11075;47.944;11.776;2023-07-20T00:39:44;7.03;;;3.47;;
21825;SDS011;11075;47.944;11.776;2023-07-20T00:42:11;6.68;;;3.70;;
21825;SDS011;11075;47.944;11.776;2023-07-20T00:44:37;8.57;;;3.85;;
21825;SDS011;11075;47.944;11.776;2023-07-20T00:47:05;6.55;;;4.05;;
21825;SDS011;11075;47.944;11.776;2023-07-20T00:49:32;5.72;;;3.97;;
21825;SDS011;11075;47.944;11.776;2023-07-20T00:52:00;6.57;;;3.70;;
21825;SDS011;11075;47.944;11.776;2023-07-20T00:54:29;5.57;;;3.80;;
21825;SDS011;11075;47.944;11.776;2023-07-20T00:56:56;6.88;;;3.72;;
21825;SDS011;11075;47.944;11.776;2023-07-20T00:59:25;6.32;;;4.13;;
21825;SDS011;11075;47.944;11.776;2023-07-20T01:01:52;8.90;;;3.75;;
21825;SDS011;11075;47.944;11.776;2023-07-20T01:04:19;6.25;;;4.20;;
21825;SDS011;11075;47.944;11.776;2023-07-20T01:06:57;6.30;;;3.80;;
21825;SDS011;11075;47.944;11.776;2023-07-20T01:09:34;8.10;;;3.70;;
21825;SDS011;11075;47.944;11.776;2023-07-20T01:12:55;5.47;;;3.67;;
21825;SDS011;11075;47.944;11.776;2023-07-20T01:15:07;8.85;;;3.85;;
21825;SDS011;11075;47.944;11.776;2023-07-20T01:17:35;8.10;;;3.90;;
21825;SDS011;11075;47.944;11.776;2023-07-20T01:20:02;8.23;;;3.97;;
21825;SDS011;11075;47.944;11.776;2023-07-20T01:30:43;5.07;;;3.80;;
21825;SDS011;11075;47.944;11.776;2023-07-20T01:33:17;5.78;;;4.45;;
21825;SDS011;11075;47.944;11.776;2023-07-20T01:35:48;10.80;;;3.65;;
21825;SDS011;11075;47.944;11.776;2023-07-20T01:38:19;7.18;;;3.72;;
21825;SDS011;11075;47.944;11.776;2023-07-20T01:40:49;7.53;;;3.90;;
21825;SDS011;11075;47.944;11.776;2023-07-20T01:43:17;11.60;;;4.22;;
21825;SDS011;11075;47.944;11.776;2023-07-20T01:45:44;5.88;;;3.75;;
21825;SDS011;11075;47.944;11.776;2023-07-20T01:48:12;8.68;;;4.00;;
21825;SDS011;11075;47.944;11.776;2023-07-20T01:50:40;8.98;;;4.35;;
21825;SDS011;11075;47.944;11.776;2023-07-20T01:53:08;8.30;;;3.88;;
21825;SDS011;11075;47.944;11.776;2023-07-20T01:55:35;6.97;;;4.25;;
21825;SDS011;11075;47.944;11.776;2023-07-20T01:58:01;6.18;;;3.95;;
21825;SDS011;11075;47.944;11.776;2023-07-20T02:00:29;8.23;;;3.90;;
21825;SDS011;11075;47.944;11.776;2023-07-20T02:02:56;6.20;;;4.80;;
21825;SDS011;11075;47.944;11.776;2023-07-20T02:05:23;5.45;;;4.05;;
21825;SDS011;11075;47.944;11.776;2023-07-20T02:07:51;9.93;;;4.00;;
21825;SDS011;11075;47.944;11.776;2023-07-20T02:10:19;5.43;;;4.20;;
21825;SDS011;11075;47.944;11.776;2023-07-20T02:12:45;5.72;;;3.90;;
21825;SDS011;11075;47.944;11.776;2023-07-20T02:15:13;5.47;;;3.78;;
21825;SDS011;11075;47.944;11.776;2023-07-20T02:17:42;11.27;;;3.97;;
21825;SDS011;11075;47.944;11.776;2023-07-20T02:20:09;8.18;;;4.20;;
21825;SDS011;11075;47.944;11.776;2023-07-20T02:22:37;9.82;;;4.07;;
21825;SDS011;11075;47.944;11.776;2023-07-20T02:25:05;5.82;;;4.05;;
21825;SDS011;11075;47.944;11.776;2023-07-20T02:27:36;6.25;;;4.10;;
21825;SDS011;11075;47.944;11.776;2023-07-20T02:30:04;7.07;;;3.65;;
21825;SDS011;11075;47.944;11.776;2023-07-20T02:32:31;7.45;;;3.80;;
21825;SDS011;11075;47.944;11.776;2023-07-20T02:34:58;6.70;;;3.47;;
21825;SDS011;11075;47.944;11.776;2023-07-20T02:37:25;9.35;;;4.05;;
21825;SDS011;11075;47.944;11.776;2023-07-20T02:39:52;7.60;;;4.03;;
21825;SDS011;11075;47.944;11.776;2023-07-20T02:42:19;6.68;;;4.15;;
21825;SDS011;11075;47.944;11.776;2023-07-20T02:44:49;8.15;;;4.03;;
21825;SDS011;11075;47.944;11.776;2023-07-20T02:47:16;9.85;;;4.20;;
21825;SDS011;11075;47.944;11.776;2023-07-20T02:49:42;6.97;;;3.83;;
21825;SDS011;11075;47.944;11.776;2023-07-20T02:52:10;5.72;;;4.05;;
21825;SDS011;11075;47.944;11.776;2023-07-20T02:54:37;7.45;;;3.92;;
21825;SDS011;11075;47.944;11.776;2023-07-20T02:57:04;10.45;;;4.10;;
21825;SDS011;11075;47.944;11.776;2023-07-20T02:59:31;8.30;;;4.25;;
21825;SDS011;11075;47.944;11.776;2023-07-20T03:01:57;7.00;;;4.00;;
21825;SDS011;11075;47.944;11.776;2023-07-20T03:04:28;6.68;;;3.83;;
21825;SDS011;11075;47.944;11.776;2023-07-20T03:06:55;4.20;;;3.70;;
21825;SDS011;11075;47.944;11.776;2023-07-20T03:09:22;5.85;;;4.28;;
21825;SDS011;11075;47.944;11.776;2023-07-20T03:11:49;9.77;;;4.38;;
21825;SDS011;11075;47.944;11.776;2023-07-20T03:14:16;7.80;;;3.40;;
21825;SDS011;11075;47.944;11.776;2023-07-20T03:16:43;7.22;;;4.07;;
21825;SDS011;11075;47.944;11.776;2023-07-20T03:19:11;5.30;;;4.50;;
21825;SDS011;11075;47.944;11.776;2023-07-20T03:21:40;6.05;;;3.85;;
21825;SDS011;11075;47.944;11.776;2023-07-20T03:24:08;6.57;;;4.22;;
21825;SDS011;11075;47.944;11.776;2023-07-20T03:26:35;5.45;;;3.88;;
21825;SDS011;11075;47.944;11.776;2023-07-20T03:29:04;5.70;;;3.60;;
21825;SDS011;11075;47.944;11.776;2023-07-20T03:31:33;4.43;;;3.47;;
21825;SDS011;11075;47.944;11.776;2023-07-20T03:34:00;10.75;;;4.72;;
21825;SDS011;11075;47.944;11.776;2023-07-20T03:36:27;7.72;;;4.20;;
21825;SDS011;11075;47.944;11.776;2023-07-20T03:38:53;7.70;;;4.28;;
21825;SDS011;11075;47.944;11.776;2023-07-20T03:41:20;8.60;;;4.20;;
21825;SDS011;11075;47.944;11.776;2023-07-20T03:43:48;6.63;;;4.05;;
21825;SDS011;11075;47.944;11.776;2023-07-20T03:46:15;7.93;;;4.35;;
21825;SDS011;11075;47.944;11.776;2023-07-20T03:48:42;6.93;;;3.88;;
21825;SDS011;11075;47.944;11.776;2023-07-20T03:51:09;5.13;;;3.00;;
21825;SDS011;11075;47.944;11.776;2023-07-20T03:53:36;6.20;;;3.03;;
21825;SDS011;11075;47.944;11.776;2023-07-20T03:56:03;5.75;;;3.08;;
21825;SDS011;11075;47.944;11.776;2023-07-20T03:58:30;10.10;;;3.65;;
21825;SDS011;11075;47.944;11.776;2023-07-20T04:00:58;9.27;;;3.20;;
21825;SDS011;11075;47.944;11.776;2023-07-20T04:03:25;5.00;;;3.33;;
21825;SDS011;11075;47.944;11.776;2023-07-20T04:05:54;3.08;;;2.72;;
21825;SDS011;11075;47.944;11.776;2023-07-20T04:08:24;9.45;;;2.97;;
21825;SDS011;11075;47.944;11.776;2023-07-20T04:10:52;3.08;;;2.15;;
21825;SDS011;11075;47.944;11.776;2023-07-20T04:13:18;6.97;;;2.63;;
21825;SDS011;11075;47.944;11.776;2023-07-20T04:15:45;6.97;;;2.28;;
21825;SDS011;11075;47.944;11.776;2023-07-20T04:18:12;3.67;;;2.05;;
21825;SDS011;11075;47.944;11.776;2023-07-20T04:20:39;3.88;;;2.30;;
21825;SDS011;11075;47.944;11.776;2023-07-20T04:23:06;5.95;;;2.42;;
21825;SDS011;11075;47.944;11.776;2023-07-20T04:25:33;5.30;;;2.28;;
21825;SDS011;11075;47.944;11.776;2023-07-20T04:28:06;3.20;;;1.80;;
21825;SDS011;11075;47.944;11.776;2023-07-20T04:30:42;5.20;;;2.25;;
21825;SDS011;11075;47.944;11.776;2023-07-20T04:33:09;5.55;;;2.08;;
21825;SDS011;11075;47.944;11.776;2023-07-20T04:35:51;6.70;;;1.92;;
21825;SDS011;11075;47.944;11.776;2023-07-20T04:38:26;5.70;;;2.25;;
21825;SDS011;11075;47.944;11.776;2023-07-20T04:41:00;2.20;;;2.00;;
21825;SDS011;11075;47.944;11.776;2023-07-20T04:43:30;8.95;;;2.38;;
21825;SDS011;11075;47.944;11.776;2023-07-20T04:45:57;7.05;;;2.60;;
21825;SDS011;11075;47.944;11.776;2023-07-20T04:48:25;3.97;;;1.85;;
21825;SDS011;11075;47.944;11.776;2023-07-20T04:50:54;3.33;;;2.10;;
21825;SDS011;11075;47.944;11.776;2023-07-20T04:53:23;5.55;;;2.28;;
21825;SDS011;11075;47.944;11.776;2023-07-20T04:55:50;3.17;;;2.17;;
21825;SDS011;11075;47.944;11.776;2023-07-20T04:58:19;3.70;;;2.30;;
21825;SDS011;11075;47.944;11.776;2023-07-20T05:00:49;4.63;;;2.10;;
21825;SDS011;11075;47.944;11.776;2023-07-20T05:03:16;4.20;;;2.75;;
21825;SDS011;11075;47.944;11.776;2023-07-20T05:05:46;6.50;;;2.28;;
21825;SDS011;11075;47.944;11.776;2023-07-20T05:08:15;5.32;;;2.55;;
21825;SDS011;11075;47.944;11.776;2023-07-20T05:10:43;5.32;;;2.40;;
21825;SDS011;11075;47.944;11.776;2023-07-20T05:13:10;3.92;;;1.85;;
21825;SDS011;11075;47.944;11.776;2023-07-20T05:15:36;5.13;;;2.22;;
21825;SDS011;11075;47.944;11.776;2023-07-20T05:18:04;3.65;;;2.17;;
21825;SDS011;11075;47.944;11.776;2023-07-20T05:20:31;7.53;;;2.35;;
21825;SDS011;11075;47.944;11.776;2023-07-20T05:22:59;4.20;;;2.20;;
21825;SDS011;11075;47.944;11.776;2023-07-20T05:25:27;3.42;;;2.17;;
21825;SDS011;11075;47.944;11.776;2023-07-20T05:27:57;6.70;;;2.42;;
21825;SDS011;11075;47.944;11.776;2023-07-20T05:30:23;4.15;;;2.35;;
21825;SDS011;11075;47.944;11.776;2023-07-20T05:32:50;5.07;;;2.40;;
21825;SDS011;11075;47.944;11.776;2023-07-20T05:35:19;4.95;;;1.95;;
21825;SDS011;11075;47.944;11.776;2023-07-20T05:37:46;6.88;;;2.47;;
21825;SDS011;11075;47.944;11.776;2023-07-20T05:40:14;4.60;;;2.25;;
21825;SDS011;11075;47.944;11.776;2023-07-20T05:42:47;4.25;;;2.40;;
21825;SDS011;11075;47.944;11.776;2023-07-20T05:45:15;5.70;;;2.42;;
21825;SDS011;11075;47.944;11.776;2023-07-20T05:47:42;4.30;;;2.47;;
21825;SDS011;11075;47.944;11.776;2023-07-20T05:50:09;5.32;;;2.70;;
21825;SDS011;11075;47.944;11.776;2023-07-20T05:52:36;5.00;;;2.70;;
21825;SDS011;11075;47.944;11.776;2023-07-20T05:55:05;6.35;;;2.60;;
21825;SDS011;11075;47.944;11.776;2023-07-20T05:57:33;4.82;;;2.45;;
21825;SDS011;11075;47.944;11.776;2023-07-20T06:00:00;5.10;;;2.70;;
21825;SDS011;11075;47.944;11.776;2023-07-20T06:02:37;4.30;;;2.40;;
21825;SDS011;11075;47.944;11.776;2023-07-20T06:05:04;3.97;;;2.33;;
21825;SDS011;11075;47.944;11.776;2023-07-20T06:07:32;6.22;;;2.38;;
21825;SDS011;11075;47.944;11.776;2023-07-20T06:09:58;4.28;;;2.50;;
21825;SDS011;11075;47.944;11.776;2023-07-20T06:12:25;3.67;;;2.35;;
21825;SDS011;11075;47.944;11.776;2023-07-20T06:14:52;3.80;;;2.38;;
21825;SDS011;11075;47.944;11.776;2023-07-20T06:17:19;4.30;;;2.47;;
21825;SDS011;11075;47.944;11.776;2023-07-20T06:19:47;5.22;;;2.88;;
21825;SDS011;11075;47.944;11.776;2023-07-20T06:22:14;2.67;;;2.13;;
21825;SDS011;11075;47.944;11.776;2023-07-20T06:24:41;4.00;;;2.35;;
21825;SDS011;11075;47.944;11.776;2023-07-20T06:27:07;3.53;;;2.20;;
21825;SDS011;11075;47.944;11.776;2023-07-20T06:29:34;3.42;;;2.17;;
21825;SDS011;11075;47.944;11.776;2023-07-20T06:32:01;9.00;;;2.60;;
21825;SDS011;11075;47.944;11.776;2023-07-20T06:34:28;3.75;;;2.30;;
21825;SDS011;11075;47.944;11.776;2023-07-20T06:36:56;3.90;;;2.20;;
21825;SDS011;11075;47.944;11.776;2023-07-20T06:39:23;4.60;;;2.50;;
21825;SDS011;11075;47.944;11.776;2023-07-20T06:41:52;4.45;;;2.47;;
21825;SDS011;11075;47.944;11.776;2023-07-20T06:44:21;4.75;;;2.30;;
21825;SDS011;11075;47.944;11.776;2023-07-20T06:46:48;6.05;;;2.60;;
21825;SDS011;11075;47.944;11.776;2023-07-20T06:49:25;3.97;;;2.60;;
21825;SDS011;11075;47.944;11.776;2023-07-20T06:51:52;5.75;;;2.60;;
21825;SDS011;11075;47.944;11.776;2023-07-20T06:54:19;7.85;;;3.10;;
21825;SDS011;11075;47.944;11.776;2023-07-20T06:56:49;5.72;;;2.72;;
21825;SDS011;11075;47.944;11.776;2023-07-20T06:59:36;3.17;;;2.28;;
21825;SDS011;11075;47.944;11.776;2023-07-20T07:02:07;5.25;;;2.50;;
21825;SDS011;11075;47.944;11.776;2023-07-20T07:04:41;3.75;;;2.60;;
21825;SDS011;11075;47.944;11.776;2023-07-20T07:07:08;4.70;;;2.20;;
21825;SDS011;11075;47.944;11.776;2023-07-20T07:09:36;4.10;;;1.92;;
21825;SDS011;11075;47.944;11.776;2023-07-20T07:12:03;4.75;;;2.50;;
21825;SDS011;11075;47.944;11.776;2023-07-20T07:14:30;2.47;;;2.10;;
21825;SDS011;11075;47.944;11.776;2023-07-20T07:16:58;3.72;;;2.00;;
21825;SDS011;11075;47.944;11.776;2023-07-20T07:19:30;3.50;;;2.42;;
21825;SDS011;11075;47.944;11.776;2023-07-20T07:21:57;3.22;;;1.92;;
21825;SDS011;11075;47.944;11.776;2023-07-20T07:24:26;4.68;;;2.00;;
21825;SDS011;11075;47.944;11.776;2023-07-20T07:26:55;3.72;;;2.33;;
21825;SDS011;11075;47.944;11.776;2023-07-20T07:29:22;4.32;;;2.15;;
21825;SDS011;11075;47.944;11.776;2023-07-20T07:31:49;4.45;;;1.67;;
21825;SDS011;11075;47.944;11.776;2023-07-20T07:34:15;5.72;;;2.20;;
21825;SDS011;11075;47.944;11.776;2023-07-20T07:36:43;4.57;;;2.00;;
21825;SDS011;11075;47.944;11.776;2023-07-20T07:39:10;4.95;;;2.30;;
21825;SDS011;11075;47.944;11.776;2023-07-20T07:41:39;3.25;;;2.08;;
21825;SDS011;11075;47.944;11.776;2023-07-20T07:44:06;3.28;;;2.00;;
21825;SDS011;11075;47.944;11.776;2023-07-20T07:46:33;3.10;;;1.98;;
21825;SDS011;11075;47.944;11.776;2023-07-20T07:49:00;3.83;;;2.10;;
21825;SDS011;11075;47.944;11.776;2023-07-20T07:51:27;8.65;;;2.05;;
21825;SDS011;11075;47.944;11.776;2023-07-20T07:53:54;2.60;;;1.77;;
21825;SDS011;11075;47.944;11.776;2023-07-20T07:56:21;4.32;;;2.13;;
21825;SDS011;11075;47.944;11.776;2023-07-20T07:58:50;4.70;;;2.15;;
21825;SDS011;11075;47.944;11.776;2023-07-20T08:01:18;2.95;;;1.90;;
21825;SDS011;11075;47.944;11.776;2023-07-20T08:03:49;2.97;;;1.77;;
21825;SDS011;11075;47.944;11.776;2023-07-20T08:06:16;5.90;;;2.22;;
21825;SDS011;11075;47.944;11.776;2023-07-20T08:08:43;5.05;;;1.92;;
21825;SDS011;11075;47.944;11.776;2023-07-20T08:11:10;4.25;;;2.20;;
21825;SDS011;11075;47.944;11.776;2023-07-20T08:13:38;3.90;;;2.00;;
21825;SDS011;11075;47.944;11.776;2023-07-20T08:16:05;4.38;;;2.40;;
21825;SDS011;11075;47.944;11.776;2023-07-20T08:18:32;3.17;;;2.00;;
21825;SDS011;11075;47.944;11.776;2023-07-20T08:20:59;3.90;;;1.70;;
21825;SDS011;11075;47.944;11.776;2023-07-20T08:23:26;5.78;;;1.85;;
21825;SDS011;11075;47.944;11.776;2023-07-20T08:25:54;2.40;;;2.00;;
21825;SDS011;11075;47.944;11.776;2023-07-20T08:28:21;3.38;;;1.77;;
21825;SDS011;11075;47.944;11.776;2023-07-20T08:30:48;3.90;;;1.90;;
21825;SDS011;11075;47.944;11.776;2023-07-20T08:33:17;4.15;;;1.83;;
21825;SDS011;11075;47.944;11.776;2023-07-20T08:35:46;3.67;;;1.90;;
21825;SDS011;11075;47.944;11.776;2023-07-20T08:38:13;6.57;;;2.00;;
21825;SDS011;11075;47.944;11.776;2023-07-20T08:40:44;3.70;;;1.80;;
21825;SDS011;11075;47.944;11.776;2023-07-20T08:43:13;6.97;;;2.53;;
21825;SDS011;11075;47.944;11.776;2023-07-20T08:45:43;5.32;;;1.95;;
21825;SDS011;11075;47.944;11.776;2023-07-20T08:48:11;4.32;;;2.10;;
21825;SDS011;11075;47.944;11.776;2023-07-20T08:50:39;4.65;;;2.00;;
21825;SDS011;11075;47.944;11.776;2023-07-20T08:53:07;3.17;;;2.03;;
21825;SDS011;11075;47.944;11.776;2023-07-20T08:55:36;2.58;;;1.25;;
21825;SDS011;11075;47.944;11.776;2023-07-20T08:58:03;3.63;;;1.90;;
21825;SDS011;11075;47.944;11.776;2023-07-20T09:00:35;3.72;;;1.95;;
21825;SDS011;11075;47.944;11.776;2023-07-20T09:03:02;3.88;;;2.05;;
21825;SDS011;11075;47.944;11.776;2023-07-20T09:05:30;5.70;;;1.55;;
21825;SDS011;11075;47.944;11.776;2023-07-20T09:07:59;5.07;;;1.95;;
21825;SDS011;11075;47.944;11.776;2023-07-20T09:10:26;2.40;;;1.52;;
21825;SDS011;11075;47.944;11.776;2023-07-20T09:12:53;4.47;;;1.60;;
21825;SDS011;11075;47.944;11.776;2023-07-20T09:15:22;2.63;;;1.77;;
21825;SDS011;11075;47.944;11.776;2023-07-20T09:17:50;3.17;;;2.17;;
21825;SDS011;11075;47.944;11.776;2023-07-20T09:20:18;2.30;;;1.58;;
21825;SDS011;11075;47.944;11.776;2023-07-20T09:22:50;3.80;;;2.03;;
21825;SDS011;11075;47.944;11.776;2023-07-20T09:25:19;2.38;;;1.65;;
21825;SDS011;11075;47.944;11.776;2023-07-20T09:27:48;2.38;;;1.50;;
21825;SDS011;11075;47.944;11.776;2023-07-20T09:30:18;2.85;;;1.88;;
21825;SDS011;11075;47.944;11.776;2023-07-20T09:32:48;3.78;;;1.75;;
21825;SDS011;11075;47.944;11.776;2023-07-20T09:35:21;2.75;;;1.80;;
21825;SDS011;11075;47.944;11.776;2023-07-20T09:37:57;2.95;;;1.95;;
21825;SDS011;11075;47.944;11.776;2023-07-20T09:40:29;2.13;;;1.75;;
21825;SDS011;11075;47.944;11.776;2023-07-20T09:42:59;3.80;;;1.65;;
21825;SDS011;11075;47.944;11.776;2023-07-20T09:45:34;3.78;;;1.90;;
21825;SDS011;11075;47.944;11.776;2023-07-20T09:48:06;4.07;;;1.77;;
21825;SDS011;11075;47.944;11.776;2023-07-20T09:50:54;4.60;;;1.73;;
21825;SDS011;11075;47.944;11.776;2023-07-20T09:53:22;4.25;;;2.08;;
21825;SDS011;11075;47.944;11.776;2023-07-20T09:55:51;2.53;;;2.10;;
21825;SDS011;11075;47.944;11.776;2023-07-20T09:58:18;8.35;;;2.00;;
21825;SDS011;11075;47.944;11.776;2023-07-20T10:00:46;9.30;;;2.00;;
21825;SDS011;11075;47.944;11.776;2023-07-20T10:03:24;3.30;;;1.85;;
21825;SDS011;11075;47.944;11.776;2023-07-20T10:06:02;2.92;;;1.83;;
21825;SDS011;11075;47.944;11.776;2023-07-20T10:08:34;7.32;;;2.00;;
21825;SDS011;11075;47.944;11.776;2023-07-20T10:11:09;2.63;;;2.00;;
21825;SDS011;11075;47.944;11.776;2023-07-20T10:13:38;2.90;;;1.90;;
21825;SDS011;11075;47.944;11.776;2023-07-20T10:16:08;2.88;;;1.98;;
21825;SDS011;11075;47.944;11.776;2023-07-20T10:18:49;2.25;;;1.85;;
21825;SDS011;11075;47.944;11.776;2023-07-20T10:21:21;3.65;;;1.88;;
21825;SDS011;11075;47.944;11.776;2023-07-20T10:23:55;2.85;;;1.83;;
21825;SDS011;11075;47.944;11.776;2023-07-20T10:26:24;3.10;;;2.08;;
21825;SDS011;11075;47.944;11.776;2023-07-20T10:28:52;4.90;;;2.10;;
21825;SDS011;11075;47.944;11.776;2023-07-20T10:31:20;5.03;;;2.25;;
21825;SDS011;11075;47.944;11.776;2023-07-20T10:33:49;4.07;;;2.10;;
21825;SDS011;11075;47.944;11.776;2023-07-20T10:36:17;4.13;;;2.03;;
21825;SDS011;11075;47.944;11.776;2023-07-20T10:38:55;2.55;;;2.08;;
21825;SDS011;11075;47.944;11.776;2023-07-20T10:41:27;3.83;;;1.98;;
21825;SDS011;11075;47.944;11.776;2023-07-20T10:43:58;7.40;;;3.00;;
21825;SDS011;11075;47.944;11.776;2023-07-20T10:49:07;6.35;;;2.22;;
21825;SDS011;11075;47.944;11.776;2023-07-20T10:54:07;3.35;;;2.10;;
21825;SDS011;11075;47.944;11.776;2023-07-20T10:56:35;4.22;;;1.70;;
21825;SDS011;11075;47.944;11.776;2023-07-20T10:59:04;8.35;;;2.10;;
21825;SDS011;11075;47.944;11.776;2023-07-20T11:01:47;3.97;;;2.00;;
21825;SDS011;11075;47.944;11.776;2023-07-20T11:04:19;4.57;;;2.38;;
21825;SDS011;11075;47.944;11.776;2023-07-20T11:06:46;3.58;;;2.08;;
21825;SDS011;11075;47.944;11.776;2023-07-20T11:09:22;4.28;;;2.00;;
21825;SDS011;11075;47.944;11.776;2023-07-20T11:11:54;3.42;;;2.00;;
21825;SDS011;11075;47.944;11.776;2023-07-20T11:14:44;2.53;;;1.67;;
21825;SDS011;11075;47.944;11.776;2023-07-20T11:17:20;4.00;;;1.80;;
21825;SDS011;11075;47.944;11.776;2023-07-20T11:19:56;3.13;;;2.28;;
21825;SDS011;11075;47.944;11.776;2023-07-20T11:22:27;7.03;;;1.98;;
21825;SDS011;11075;47.944;11.776;2023-07-20T11:24:57;3.10;;;1.80;;
21825;SDS011;11075;47.944;11.776;2023-07-20T11:27:25;12.65;;;2.50;;
21825;SDS011;11075;47.944;11.776;2023-07-20T11:29:52;4.30;;;1.90;;
21825;SDS011;11075;47.944;11.776;2023-07-20T11:32:22;3.17;;;1.63;;
21825;SDS011;11075;47.944;11.776;2023-07-20T11:34:51;5.85;;;2.15;;
21825;SDS011;11075;47.944;11.776;2023-07-20T11:37:18;2.30;;;1.63;;
21825;SDS011;11075;47.944;11.776;2023-07-20T11:39:45;3.15;;;1.80;;
21825;SDS011;11075;47.944;11.776;2023-07-20T11:42:13;3.15;;;2.00;;
21825;SDS011;11075;47.944;11.776;2023-07-20T11:45:01;3.70;;;1.88;;
21825;SDS011;11075;47.944;11.776;2023-07-20T11:47:32;4.85;;;2.30;;
21825;SDS011;11075;47.944;11.776;2023-07-20T11:50:03;6.65;;;2.78;;
21825;SDS011;11075;47.944;11.776;2023-07-20T11:52:30;3.67;;;1.77;;
21825;SDS011;11075;47.944;11.776;2023-07-20T11:54:58;2.28;;;1.70;;
21825;SDS011;11075;47.944;11.776;2023-07-20T11:57:25;3.40;;;2.03;;
21825;SDS011;11075;47.944;11.776;2023-07-20T12:00:00;2.28;;;1.95;;
21825;SDS011;11075;47.944;11.776;2023-07-20T12:02:30;2.35;;;1.63;;
21825;SDS011;11075;47.944;11.776;2023-07-20T12:04:57;3.88;;;1.95;;
21825;SDS011;11075;47.944;11.776;2023-07-20T12:07:27;3.67;;;1.75;;
21825;SDS011;11075;47.944;11.776;2023-07-20T12:10:08;1.52;;;1.30;;
21825;SDS011;11075;47.944;11.776;2023-07-20T12:12:41;2.65;;;1.75;;
21825;SDS011;11075;47.944;11.776;2023-07-20T12:15:16;4.20;;;2.00;;
21825;SDS011;11075;47.944;11.776;2023-07-20T12:17:51;3.13;;;1.70;;
21825;SDS011;11075;47.944;11.776;2023-07-20T12:20:32;3.72;;;1.80;;
21825;SDS011;11075;47.944;11.776;2023-07-20T12:23:03;3.08;;;1.83;;
21825;SDS011;11075;47.944;11.776;2023-07-20T12:28:14;2.92;;;1.80;;
21825;SDS011;11075;47.944;11.776;2023-07-20T12:30:43;4.20;;;2.00;;
21825;SDS011;11075;47.944;11.776;2023-07-20T12:33:11;3.42;;;1.75;;
21825;SDS011;11075;47.944;11.776;2023-07-20T12:35:42;4.60;;;1.73;;
21825;SDS011;11075;47.944;11.776;2023-07-20T12:38:09;3.58;;;1.73;;
21825;SDS011;11075;47.944;11.776;2023-07-20T12:40:36;3.08;;;1.75;;
21825;SDS011;11075;47.944;11.776;2023-07-20T12:43:03;4.60;;;2.20;;
21825;SDS011;11075;47.944;11.776;2023-07-20T12:45:31;2.40;;;1.75;;
21825;SDS011;11075;47.944;11.776;2023-07-20T12:47:58;2.15;;;1.60;;
21825;SDS011;11075;47.944;11.776;2023-07-20T12:50:26;3.28;;;2.00;;
21825;SDS011;11075;47.944;11.776;2023-07-20T12:52:53;2.90;;;1.70;;
21825;SDS011;11075;47.944;11.776;2023-07-20T12:55:20;4.10;;;2.60;;
21825;SDS011;11075;47.944;11.776;2023-07-20T12:57:47;2.05;;;1.55;;
21825;SDS011;11075;47.944;11.776;2023-07-20T13:00:13;4.10;;;1.92;;
21825;SDS011;11075;47.944;11.776;2023-07-20T13:02:41;2.33;;;1.80;;
21825;SDS011;11075;47.944;11.776;2023-07-20T13:05:08;6.50;;;2.58;;
21825;SDS011;11075;47.944;11.776;2023-07-20T13:07:36;2.70;;;1.60;;
21825;SDS011;11075;47.944;11.776;2023-07-20T13:10:07;3.80;;;2.30;;
21825;SDS011;11075;47.944;11.776;2023-07-20T13:12:35;5.50;;;2.00;;
21825;SDS011;11075;47.944;11.776;2023-07-20T13:15:04;4.20;;;1.80;;
21825;SDS011;11075;47.944;11.776;2023-07-20T13:17:33;3.92;;;1.80;;
21825;SDS011;11075;47.944;11.776;2023-07-20T13:20:00;2.35;;;1.73;;
21825;SDS011;11075;47.944;11.776;2023-07-20T13:22:31;3.00;;;1.90;;
21825;SDS011;11075;47.944;11.776;2023-07-20T13:24:58;3.55;;;1.80;;
21825;SDS011;11075;47.944;11.776;2023-07-20T13:27:25;6.05;;;1.73;;
21825;SDS011;11075;47.944;11.776;2023-07-20T13:29:55;1.65;;;1.50;;
21825;SDS011;11075;47.944;11.776;2023-07-20T13:32:24;3.95;;;1.80;;
21825;SDS011;11075;47.944;11.776;2023-07-20T13:34:53;8.00;;;1.70;;
21825;SDS011;11075;47.944;11.776;2023-07-20T13:37:19;3.72;;;1.83;;
21825;SDS011;11075;47.944;11.776;2023-07-20T13:39:47;3.03;;;1.80;;
21825;SDS011;11075;47.944;11.776;2023-07-20T13:42:15;2.47;;;1.65;;
21825;SDS011;11075;47.944;11.776;2023-07-20T13:44:45;5.65;;;2.05;;
21825;SDS011;11075;47.944;11.776;2023-07-20T13:47:13;3.35;;;1.67;;
21825;SDS011;11075;47.944;11.776;2023-07-20T13:49:45;2.17;;;1.67;;
21825;SDS011;11075;47.944;11.776;2023-07-20T13:52:13;2.53;;;1.80;;
21825;SDS011;11075;47.944;11.776;2023-07-20T13:54:43;4.43;;;1.90;;
21825;SDS011;11075;47.944;11.776;2023-07-20T13:57:14;3.13;;;1.65;;
21825;SDS011;11075;47.944;11.776;2023-07-20T13:59:44;5.47;;;1.80;;
21825;SDS011;11075;47.944;11.776;2023-07-20T14:02:13;3.35;;;1.80;;
21825;SDS011;11075;47.944;11.776;2023-07-20T14:04:44;2.95;;;1.90;;
21825;SDS011;11075;47.944;11.776;2023-07-20T14:07:11;4.13;;;1.70;;
21825;SDS011;11075;47.944;11.776;2023-07-20T14:09:42;2.38;;;1.90;;
21825;SDS011;11075;47.944;11.776;2023-07-20T14:12:12;3.35;;;1.90;;
21825;SDS011;11075;47.944;11.776;2023-07-20T14:14:43;4.90;;;1.80;;
21825;SDS011;11075;47.944;11.776;2023-07-20T14:17:09;3.65;;;1.80;;
21825;SDS011;11075;47.944;11.776;2023-07-20T14:19:37;5.82;;;2.70;;
21825;SDS011;11075;47.944;11.776;2023-07-20T14:22:04;3.15;;;1.73;;
21825;SDS011;11075;47.944;11.776;2023-07-20T14:24:31;3.60;;;2.17;;
21825;SDS011;11075;47.944;11.776;2023-07-20T14:26:58;3.35;;;1.77;;
21825;SDS011;11075;47.944;11.776;2023-07-20T14:29:27;2.55;;;1.75;;
21825;SDS011;11075;47.944;11.776;2023-07-20T14:31:58;4.30;;;2.15;;
21825;SDS011;11075;47.944;11.776;2023-07-20T14:34:25;3.97;;;2.00;;
21825;SDS011;11075;47.944;11.776;2023-07-20T14:36:52;2.33;;;1.80;;
21825;SDS011;11075;47.944;11.776;2023-07-20T14:39:20;5.20;;;2.13;;
21825;SDS011;11075;47.944;11.776;2023-07-20T14:41:47;3.72;;;2.03;;
21825;SDS011;11075;47.944;11.776;2023-07-20T14:44:16;2.25;;;1.70;;
21825;SDS011;11075;47.944;11.776;2023-07-20T14:46:43;3.40;;;1.80;;
21825;SDS011;11075;47.944;11.776;2023-07-20T14:49:27;4.32;;;1.58;;
21825;SDS011;11075;47.944;11.776;2023-07-20T14:51:54;2.70;;;1.80;;
21825;SDS011;11075;47.944;11.776;2023-07-20T14:54:25;2.45;;;1.60;;
21825;SDS011;11075;47.944;11.776;2023-07-20T14:56:52;3.85;;;2.10;;
21825;SDS011;11075;47.944;11.776;2023-07-20T14:59:20;3.97;;;1.88;;